createdAt,value
2023-12-29T00:02:02.382Z,2.45
2023-12-29T00:04:31.828Z,2.40
2023-12-29T00:07:02.969Z,1.98
2023-12-29T00:09:31.766Z,2.53
2023-12-29T00:11:59.706Z,2.42
2023-12-29T00:14:27.603Z,2.38
2023-12-29T00:16:58.356Z,2.30
2023-12-29T00:19:26.438Z,2.00
2023-12-29T00:21:55.961Z,2.38
2023-12-29T00:24:24.063Z,2.40
2023-12-29T00:26:51.921Z,2.53
2023-12-29T00:29:19.871Z,2.63
2023-12-29T00:31:47.927Z,2.70
2023-12-29T00:34:15.967Z,2.90
2023-12-29T00:36:44.100Z,2.70
2023-12-29T00:39:13.553Z,2.70
2023-12-29T00:41:44.686Z,2.60
2023-12-29T00:44:12.767Z,2.30
2023-12-29T00:46:40.794Z,2.63
2023-12-29T00:49:08.925Z,2.60
2023-12-29T00:51:42.272Z,2.60
2023-12-29T00:54:14.234Z,2.53
2023-12-29T00:56:42.271Z,2.90
2023-12-29T00:59:10.470Z,2.67
2023-12-29T01:01:41.330Z,2.58
2023-12-29T01:04:09.553Z,2.60
2023-12-29T01:06:37.774Z,2.63
2023-12-29T01:09:09.461Z,2.70
2023-12-29T01:11:40.980Z,3.15
2023-12-29T01:14:09.504Z,2.33
2023-12-29T01:16:39.896Z,2.50
2023-12-29T01:19:10.264Z,2.70
2023-12-29T01:21:40.729Z,3.08
2023-12-29T01:24:09.234Z,3.10
2023-12-29T01:26:41.104Z,2.70
2023-12-29T01:29:09.201Z,2.70
2023-12-29T01:31:37.421Z,3.20
2023-12-29T01:34:05.571Z,2.88
2023-12-29T01:36:36.196Z,2.50
2023-12-29T01:39:04.584Z,2.65
2023-12-29T01:41:32.563Z,3.03
2023-12-29T01:44:23.193Z,3.17
2023-12-29T01:46:57.213Z,3.05
2023-12-29T01:49:25.294Z,2.88
2023-12-29T01:51:58.031Z,2.67
2023-12-29T01:54:29.879Z,2.83
2023-12-29T01:57:01.231Z,2.75
2023-12-29T01:59:32.402Z,2.72
2023-12-29T02:02:00.917Z,3.10
2023-12-29T02:04:30.449Z,2.65
2023-12-29T02:06:58.908Z,2.88
2023-12-29T02:09:28.126Z,2.88
2023-12-29T02:11:56.923Z,2.95
2023-12-29T02:14:25.960Z,3.15
2023-12-29T02:17:02.566Z,3.15
2023-12-29T02:19:41.347Z,2.83
2023-12-29T02:22:10.775Z,3.30
2023-12-29T02:24:39.771Z,2.97
2023-12-29T02:27:17.052Z,3.05
2023-12-29T02:29:50.823Z,3.17
2023-12-29T02:34:50.878Z,3.13
2023-12-29T02:37:20.113Z,2.88
2023-12-29T02:39:48.232Z,2.70
2023-12-29T02:42:17.526Z,3.08
2023-12-29T02:44:45.499Z,3.10
2023-12-29T02:47:14.966Z,2.90
2023-12-29T02:49:43.138Z,2.92
2023-12-29T02:52:11.589Z,2.63
2023-12-29T02:54:39.732Z,3.10
2023-12-29T02:57:07.747Z,3.15
2023-12-29T02:59:38.470Z,2.95
2023-12-29T03:02:08.194Z,2.90
2023-12-29T03:04:36.302Z,3.40
2023-12-29T03:07:04.285Z,3.45
2023-12-29T03:09:32.376Z,3.33
2023-12-29T03:12:00.578Z,2.60
2023-12-29T03:14:28.633Z,2.70
2023-12-29T03:16:58.435Z,2.90
2023-12-29T03:19:29.726Z,2.83
2023-12-29T03:21:57.688Z,2.90
2023-12-29T03:24:25.755Z,2.85
2023-12-29T03:26:54.874Z,2.90
2023-12-29T03:29:23.085Z,3.03
2023-12-29T03:31:51.066Z,2.88
2023-12-29T03:34:21.065Z,3.35
2023-12-29T03:36:51.443Z,3.05
2023-12-29T03:39:20.140Z,3.10
2023-12-29T03:41:48.267Z,3.10
2023-12-29T03:44:16.419Z,3.10
2023-12-29T03:46:45.883Z,2.90
2023-12-29T03:49:14.039Z,2.72
2023-12-29T03:51:43.362Z,3.03
2023-12-29T03:54:11.534Z,3.35
2023-12-29T03:56:39.582Z,2.72
2023-12-29T03:59:10.535Z,2.90
2023-12-29T04:01:38.615Z,2.92
2023-12-29T04:04:06.650Z,2.53
2023-12-29T04:06:35.783Z,2.30
2023-12-29T04:09:05.393Z,2.45
2023-12-29T04:11:33.928Z,2.53
2023-12-29T04:14:02.193Z,2.78
2023-12-29T04:16:30.294Z,2.30
2023-12-29T04:18:58.265Z,2.60
2023-12-29T04:21:26.292Z,2.70
2023-12-29T04:23:54.247Z,2.60
2023-12-29T04:26:23.883Z,2.58
2023-12-29T04:28:55.889Z,2.50
2023-12-29T04:31:34.189Z,2.42
2023-12-29T04:34:02.184Z,2.45
2023-12-29T04:36:30.277Z,2.40
2023-12-29T04:38:58.348Z,2.40
2023-12-29T04:41:27.686Z,2.58
2023-12-29T04:43:55.605Z,2.88
2023-12-29T04:46:23.505Z,2.42
2023-12-29T04:48:51.521Z,2.75
2023-12-29T04:51:19.590Z,2.75
2023-12-29T04:53:47.642Z,2.60
2023-12-29T04:56:15.598Z,2.53
2023-12-29T04:58:44.899Z,2.38
2023-12-29T05:01:12.957Z,2.80
2023-12-29T05:03:41.041Z,2.60
2023-12-29T05:06:09.018Z,2.42
2023-12-29T05:08:37.024Z,2.53
2023-12-29T05:11:05.191Z,2.42
2023-12-29T05:13:33.169Z,2.20
2023-12-29T05:16:08.477Z,2.75
2023-12-29T05:18:36.637Z,2.40
2023-12-29T05:21:04.950Z,2.50
2023-12-29T05:23:33.082Z,2.30
2023-12-29T05:26:01.004Z,2.30
2023-12-29T05:28:29.267Z,2.92
2023-12-29T05:30:57.401Z,2.25
2023-12-29T05:33:26.901Z,2.70
2023-12-29T05:35:55.015Z,2.70
2023-12-29T05:38:23.111Z,2.60
2023-12-29T05:40:53.502Z,2.75
2023-12-29T05:43:21.508Z,2.53
2023-12-29T05:45:49.624Z,2.70
2023-12-29T05:48:17.810Z,2.42
2023-12-29T05:50:47.370Z,2.67
2023-12-29T05:53:16.428Z,2.90
2023-12-29T05:55:45.682Z,2.47
2023-12-29T05:58:14.069Z,2.50
2023-12-29T06:00:42.179Z,2.83
2023-12-29T06:03:10.351Z,2.28
2023-12-29T06:05:40.741Z,2.63
2023-12-29T06:08:13.380Z,2.88
2023-12-29T06:10:40.554Z,2.60
2023-12-29T06:13:08.983Z,2.70
2023-12-29T06:15:37.728Z,2.67
2023-12-29T06:18:07.070Z,3.10
2023-12-29T06:20:35.232Z,2.53
2023-12-29T06:23:04.057Z,2.83
2023-12-29T06:25:34.637Z,2.60
2023-12-29T06:28:07.670Z,2.20
2023-12-29T06:30:36.584Z,2.92
2023-12-29T06:33:05.125Z,2.85
2023-12-29T06:35:33.464Z,3.00
2023-12-29T06:38:01.872Z,2.83
2023-12-29T06:40:30.171Z,2.75
2023-12-29T06:42:59.814Z,2.40
2023-12-29T06:45:27.924Z,2.28
2023-12-29T06:47:56.218Z,2.65
2023-12-29T06:50:24.394Z,2.60
2023-12-29T06:52:52.701Z,2.25
2023-12-29T06:55:20.983Z,2.55
2023-12-29T06:57:49.152Z,2.53
2023-12-29T07:00:19.361Z,2.58
2023-12-29T07:02:49.409Z,2.25
2023-12-29T07:05:17.728Z,2.22
2023-12-29T07:07:48.209Z,2.10
2023-12-29T07:10:16.869Z,2.75
2023-12-29T07:12:46.292Z,2.72
2023-12-29T07:15:16.155Z,2.35
2023-12-29T07:17:46.128Z,2.65
2023-12-29T07:20:14.823Z,2.85
2023-12-29T07:22:43.088Z,2.30
2023-12-29T07:25:12.641Z,2.50
2023-12-29T07:27:40.815Z,2.55
2023-12-29T07:30:14.022Z,2.45
2023-12-29T07:32:42.332Z,2.30
2023-12-29T07:35:17.953Z,2.13
2023-12-29T07:37:46.150Z,2.40
2023-12-29T07:48:43.919Z,2.30
2023-12-29T07:58:58.271Z,2.40
2023-12-29T08:01:26.842Z,2.20
2023-12-29T08:03:55.103Z,2.38
2023-12-29T08:06:23.966Z,2.00
2023-12-29T08:08:52.611Z,2.10
2023-12-29T08:11:20.496Z,2.33
2023-12-29T08:13:50.330Z,2.50
2023-12-29T08:16:23.317Z,2.38
2023-12-29T08:18:52.661Z,2.10
2023-12-29T08:21:24.971Z,2.45
2023-12-29T08:23:52.783Z,2.40
2023-12-29T08:26:20.599Z,2.25
2023-12-29T08:28:52.321Z,2.35
2023-12-29T08:31:23.393Z,1.90
2023-12-29T08:33:51.594Z,2.63
2023-12-29T08:36:23.393Z,2.88
2023-12-29T08:38:54.083Z,2.45
2023-12-29T08:41:22.166Z,2.15
2023-12-29T08:43:50.283Z,2.25
2023-12-29T08:46:18.313Z,2.20
2023-12-29T08:48:47.960Z,2.70
2023-12-29T08:51:16.135Z,2.63
2023-12-29T08:53:45.055Z,2.00
2023-12-29T08:56:15.699Z,2.22
2023-12-29T08:58:43.842Z,2.53
2023-12-29T09:01:11.779Z,2.40
2023-12-29T09:03:41.637Z,2.10
2023-12-29T09:06:11.943Z,2.70
2023-12-29T09:08:39.964Z,2.33
2023-12-29T09:11:07.941Z,2.40
2023-12-29T09:13:38.492Z,2.60
2023-12-29T09:16:07.509Z,2.20
2023-12-29T09:18:36.987Z,2.25
2023-12-29T09:21:05.548Z,2.40
2023-12-29T09:23:36.004Z,2.15
2023-12-29T09:26:04.758Z,2.00
2023-12-29T09:28:38.142Z,2.30
2023-12-29T09:31:06.294Z,2.13
2023-12-29T09:33:34.264Z,2.50
2023-12-29T09:36:02.319Z,2.13
2023-12-29T09:38:30.403Z,1.98
2023-12-29T09:41:04.202Z,2.20
2023-12-29T09:43:33.446Z,2.10
2023-12-29T09:46:02.026Z,2.42
2023-12-29T09:48:30.631Z,1.95
2023-12-29T09:50:59.154Z,2.25
2023-12-29T09:53:28.518Z,2.10
2023-12-29T09:55:57.370Z,1.95
2023-12-29T09:58:43.635Z,1.92
2023-12-29T10:01:14.853Z,1.65
2023-12-29T10:03:42.955Z,2.00
2023-12-29T10:06:15.242Z,2.03
2023-12-29T10:08:47.617Z,2.13
2023-12-29T10:11:17.594Z,1.98
2023-12-29T10:13:49.031Z,1.80
2023-12-29T10:16:29.302Z,1.80
2023-12-29T10:19:13.854Z,1.77
2023-12-29T10:22:36.718Z,1.77
2023-12-29T10:25:19.168Z,1.85
2023-12-29T10:27:49.579Z,1.80
2023-12-29T10:33:07.577Z,1.70
2023-12-29T10:35:40.448Z,1.52
2023-12-29T10:41:22.773Z,2.00
2023-12-29T10:44:08.964Z,1.77
2023-12-29T10:46:47.947Z,1.80
2023-12-29T10:49:46.623Z,1.85
2023-12-29T10:52:38.706Z,1.50
2023-12-29T10:55:09.277Z,1.70
2023-12-29T10:57:37.546Z,1.48
2023-12-29T11:00:07.628Z,1.60
2023-12-29T11:02:37.205Z,1.40
2023-12-29T11:05:06.997Z,1.38
2023-12-29T11:07:37.177Z,1.45
2023-12-29T11:10:11.763Z,1.40
2023-12-29T11:12:42.045Z,1.75
2023-12-29T11:15:11.337Z,1.63
2023-12-29T11:17:42.194Z,2.10
2023-12-29T11:20:16.007Z,1.40
2023-12-29T11:25:18.679Z,1.60
2023-12-29T11:27:47.522Z,1.50
2023-12-29T11:30:21.070Z,1.70
2023-12-29T11:32:55.625Z,1.63
2023-12-29T11:35:31.716Z,1.50
2023-12-29T11:38:21.548Z,1.80
2023-12-29T11:41:00.443Z,1.65
2023-12-29T11:43:29.295Z,1.50
2023-12-29T11:45:57.236Z,1.30
2023-12-29T11:48:59.795Z,1.50
2023-12-29T11:51:36.392Z,1.30
2023-12-29T11:54:07.641Z,1.65
2023-12-29T11:56:41.719Z,1.75
2023-12-29T11:59:20.051Z,1.30
2023-12-29T12:01:52.235Z,1.50
2023-12-29T12:04:43.638Z,1.38
2023-12-29T12:07:18.062Z,1.50
2023-12-29T12:09:45.308Z,1.30
2023-12-29T12:12:13.273Z,1.30
2023-12-29T12:15:03.215Z,1.50
2023-12-29T12:17:33.810Z,1.30
2023-12-29T12:20:10.770Z,1.10
2023-12-29T12:22:39.867Z,1.60
2023-12-29T12:25:08.864Z,1.33
2023-12-29T12:27:40.030Z,1.50
2023-12-29T12:30:11.261Z,1.30
2023-12-29T12:32:39.483Z,1.67
2023-12-29T12:35:16.930Z,1.20
2023-12-29T12:37:45.639Z,1.17
2023-12-29T12:40:27.335Z,1.30
2023-12-29T12:42:55.521Z,1.40
2023-12-29T12:45:24.235Z,1.60
2023-12-29T12:47:54.812Z,1.75
2023-12-29T12:50:24.329Z,1.60
2023-12-29T12:52:53.373Z,1.60
2023-12-29T12:55:21.779Z,1.40
2023-12-29T12:57:52.079Z,1.50
2023-12-29T13:00:20.062Z,1.48
2023-12-29T13:02:48.654Z,1.58
2023-12-29T13:05:19.480Z,1.20
2023-12-29T13:07:48.864Z,2.05
2023-12-29T13:10:18.376Z,1.70
2023-12-29T13:12:57.416Z,1.60
2023-12-29T13:15:27.477Z,1.58
2023-12-29T13:17:56.068Z,1.73
2023-12-29T13:20:24.073Z,1.60
2023-12-29T13:22:55.193Z,1.85
2023-12-29T13:25:38.705Z,1.63
2023-12-29T13:28:07.868Z,1.70
2023-12-29T13:30:38.751Z,1.58
2023-12-29T13:33:11.968Z,1.60
2023-12-29T13:35:54.931Z,1.50
2023-12-29T13:38:35.889Z,1.50
2023-12-29T13:41:09.461Z,1.80
2023-12-29T13:43:43.597Z,1.63
2023-12-29T13:46:13.639Z,1.52
2023-12-29T13:48:56.111Z,1.75
2023-12-29T13:51:26.117Z,1.65
2023-12-29T13:54:01.668Z,1.45
2023-12-29T13:56:29.888Z,1.70
2023-12-29T13:58:57.908Z,1.50
2023-12-29T14:01:25.845Z,1.55
2023-12-29T14:04:01.244Z,1.60
2023-12-29T14:06:32.215Z,1.75
2023-12-29T14:09:01.540Z,1.40
2023-12-29T14:11:32.031Z,1.40
2023-12-29T14:13:59.971Z,1.70
2023-12-29T14:16:28.140Z,1.52
2023-12-29T14:18:58.082Z,1.40
2023-12-29T14:21:28.819Z,1.52
2023-12-29T14:24:09.245Z,2.15
2023-12-29T14:26:37.220Z,1.50
2023-12-29T14:29:06.499Z,1.60
2023-12-29T14:31:38.393Z,1.27
2023-12-29T14:34:06.794Z,1.40
2023-12-29T14:36:34.984Z,1.80
2023-12-29T14:39:05.502Z,1.73
2023-12-29T14:41:33.433Z,1.77
2023-12-29T14:44:02.809Z,1.60
2023-12-29T14:46:30.960Z,1.70
2023-12-29T14:48:59.697Z,1.08
2023-12-29T14:51:27.823Z,1.77
2023-12-29T14:53:55.680Z,1.40
2023-12-29T14:56:24.982Z,1.50
2023-12-29T14:58:53.099Z,1.60
2023-12-29T15:01:21.205Z,1.50
2023-12-29T15:03:49.524Z,1.35
2023-12-29T15:06:17.685Z,1.40
2023-12-29T15:08:45.723Z,1.70
2023-12-29T15:11:13.559Z,1.40
2023-12-29T15:13:43.733Z,1.88
2023-12-29T15:16:11.734Z,1.52
2023-12-29T15:18:39.680Z,1.50
2023-12-29T15:21:07.888Z,1.80
2023-12-29T15:23:38.167Z,1.77
2023-12-29T15:26:06.236Z,1.60
2023-12-29T15:28:34.178Z,1.40
2023-12-29T15:31:04.014Z,1.80
2023-12-29T15:33:32.145Z,1.40
2023-12-29T15:36:00.135Z,1.80
2023-12-29T15:38:29.239Z,1.55
2023-12-29T15:40:58.148Z,1.75
2023-12-29T15:43:30.344Z,1.58
2023-12-29T15:45:58.448Z,1.58
2023-12-29T15:48:27.863Z,1.98
2023-12-29T15:50:55.791Z,1.60
2023-12-29T15:53:23.646Z,1.92
2023-12-29T15:55:51.916Z,1.75
2023-12-29T15:58:19.921Z,1.80
2023-12-29T16:00:47.881Z,1.65
2023-12-29T16:03:17.714Z,1.80
2023-12-29T16:05:48.227Z,1.80
2023-12-29T16:08:16.055Z,1.50
2023-12-29T16:10:45.036Z,2.08
2023-12-29T16:13:13.053Z,1.65
2023-12-29T16:15:40.937Z,1.60
2023-12-29T16:18:09.120Z,1.60
2023-12-29T16:20:38.408Z,1.80
2023-12-29T16:23:08.681Z,1.63
2023-12-29T16:25:36.735Z,1.60
2023-12-29T16:28:05.086Z,1.80
2023-12-29T16:30:32.938Z,1.70
2023-12-29T16:33:01.027Z,1.50
2023-12-29T16:35:29.027Z,1.70
2023-12-29T16:37:56.789Z,1.60
2023-12-29T16:40:28.245Z,1.90
2023-12-29T16:42:56.171Z,1.73
2023-12-29T16:45:23.989Z,2.03
2023-12-29T16:47:51.929Z,2.00
2023-12-29T16:50:19.805Z,1.98
2023-12-29T16:52:47.604Z,2.58
2023-12-29T16:55:17.209Z,2.42
2023-12-29T16:57:48.834Z,2.00
2023-12-29T17:00:17.308Z,1.98
2023-12-29T17:02:45.145Z,2.13
2023-12-29T17:05:13.651Z,1.60
2023-12-29T17:07:41.591Z,2.00
2023-12-29T17:10:10.616Z,1.65
2023-12-29T17:12:38.522Z,1.73
2023-12-29T17:15:09.145Z,1.90
2023-12-29T17:17:36.994Z,1.60
2023-12-29T17:20:05.555Z,2.00
2023-12-29T17:22:33.767Z,1.90
2023-12-29T17:25:02.150Z,2.20
2023-12-29T17:27:30.824Z,1.90
2023-12-29T17:29:58.726Z,1.80
2023-12-29T17:32:27.929Z,1.83
2023-12-29T17:34:55.859Z,1.75
2023-12-29T17:37:24.615Z,1.73
2023-12-29T17:39:52.543Z,2.03
2023-12-29T17:42:20.429Z,2.05
2023-12-29T17:44:48.327Z,2.35
2023-12-29T17:47:16.223Z,2.22
2023-12-29T17:49:44.824Z,2.40
2023-12-29T17:52:13.033Z,2.17
2023-12-29T17:55:00.630Z,2.60
2023-12-29T17:57:42.627Z,2.90
2023-12-29T18:00:37.085Z,2.50
2023-12-29T18:03:28.708Z,2.25
2023-12-29T18:06:07.894Z,2.30
2023-12-29T18:09:13.208Z,2.20
2023-12-29T18:11:45.452Z,2.75
2023-12-29T18:14:16.046Z,2.28
2023-12-29T18:17:40.187Z,2.40
2023-12-29T18:20:25.779Z,2.60
2023-12-29T18:26:22.138Z,2.80
2023-12-29T18:29:01.189Z,5.05
2023-12-29T18:31:49.158Z,3.00
2023-12-29T18:38:18.429Z,4.45
2023-12-29T18:44:21.333Z,3.35
2023-12-29T18:46:49.209Z,2.60
2023-12-29T18:49:17.971Z,2.60
2023-12-29T18:51:48.990Z,2.17
2023-12-29T18:54:19.052Z,2.42
2023-12-29T18:56:47.145Z,2.30
2023-12-29T18:59:14.939Z,2.40
2023-12-29T19:01:48.295Z,2.38
2023-12-29T19:04:16.391Z,2.13
2023-12-29T19:06:44.983Z,2.42
2023-12-29T19:09:12.944Z,3.80
2023-12-29T19:11:40.811Z,2.75
2023-12-29T19:14:08.730Z,2.70
2023-12-29T19:16:36.967Z,2.30
2023-12-29T19:19:06.270Z,2.22
2023-12-29T19:24:24.397Z,2.80
2023-12-29T19:26:53.537Z,2.10
2023-12-29T19:29:21.521Z,2.03
2023-12-29T19:31:49.373Z,2.00
2023-12-29T19:34:20.155Z,2.10
2023-12-29T19:36:50.307Z,2.13
2023-12-29T19:39:18.341Z,3.63
2023-12-29T19:41:46.423Z,3.13
2023-12-29T19:44:14.494Z,2.47
2023-12-29T19:46:43.446Z,2.80
2023-12-29T19:49:11.823Z,2.63
2023-12-29T19:51:41.171Z,2.33
2023-12-29T19:54:09.056Z,2.72
2023-12-29T19:56:36.911Z,2.95
2023-12-29T19:59:05.127Z,2.83
2023-12-29T20:01:40.906Z,2.53
2023-12-29T20:04:13.315Z,3.50
2023-12-29T20:06:43.347Z,2.85
2023-12-29T20:09:11.459Z,2.67
2023-12-29T20:11:42.413Z,3.05
2023-12-29T20:14:12.896Z,2.60
2023-12-29T20:16:41.157Z,2.72
2023-12-29T20:19:10.854Z,2.95
2023-12-29T20:21:39.558Z,2.78
2023-12-29T20:24:13.176Z,2.50
2023-12-29T20:26:41.714Z,2.45
2023-12-29T20:29:09.615Z,3.30
2023-12-29T20:36:28.357Z,2.58
2023-12-29T20:38:56.791Z,2.17
2023-12-29T20:41:27.135Z,1.92
2023-12-29T20:43:57.136Z,2.50
2023-12-29T20:46:25.588Z,2.65
2023-12-29T20:48:53.716Z,2.20
2023-12-29T20:51:22.464Z,1.98
2023-12-29T20:53:52.732Z,2.63
2023-12-29T20:56:21.101Z,2.20
2023-12-29T20:58:53.111Z,2.53
2023-12-29T21:01:23.828Z,2.60
2023-12-29T21:03:52.361Z,2.40
2023-12-29T21:06:20.670Z,2.13
2023-12-29T21:08:52.044Z,2.58
2023-12-29T21:11:21.399Z,2.08
2023-12-29T21:13:51.080Z,2.10
2023-12-29T21:16:21.812Z,2.10
2023-12-29T21:18:51.684Z,1.65
2023-12-29T21:25:39.300Z,2.03
2023-12-29T21:28:09.448Z,2.03
2023-12-29T21:30:39.532Z,1.90
2023-12-29T21:33:07.751Z,1.92
2023-12-29T21:35:36.267Z,1.90
2023-12-29T21:38:04.598Z,1.80
2023-12-29T21:40:32.630Z,1.90
2023-12-29T21:43:03.782Z,2.50
2023-12-29T21:45:31.930Z,2.00
2023-12-29T21:48:01.519Z,1.90
2023-12-29T21:50:29.634Z,2.00
2023-12-29T21:52:58.120Z,1.80
2023-12-29T21:55:26.085Z,2.10
2023-12-29T21:57:56.809Z,2.00
2023-12-29T22:00:25.450Z,1.80
2023-12-29T22:02:53.283Z,2.00
2023-12-29T22:05:23.249Z,1.90
2023-12-29T22:07:51.075Z,2.05
2023-12-29T22:10:19.093Z,2.35
2023-12-29T22:12:47.116Z,2.83
2023-12-29T22:15:15.185Z,2.50
2023-12-29T22:17:42.989Z,2.53
2023-12-29T22:20:11.475Z,3.92
2023-12-29T22:22:40.851Z,2.78
2023-12-29T22:25:09.933Z,2.55
2023-12-29T22:27:38.194Z,2.92
2023-12-29T22:30:08.877Z,2.20
2023-12-29T22:32:36.949Z,2.78
2023-12-29T22:35:05.647Z,2.60
2023-12-29T22:37:33.575Z,2.30
2023-12-29T22:40:02.745Z,2.58
2023-12-29T22:42:30.979Z,2.08
2023-12-29T22:44:58.824Z,2.40
2023-12-29T22:51:46.181Z,2.08
2023-12-29T22:54:16.383Z,2.08
2023-12-29T22:56:45.659Z,2.10
2023-12-29T22:59:14.437Z,1.90
2023-12-29T23:01:42.392Z,2.00
2023-12-29T23:04:10.683Z,2.05
2023-12-29T23:06:40.708Z,2.42
2023-12-29T23:09:08.604Z,2.30
2023-12-29T23:11:36.421Z,2.00
2023-12-29T23:14:05.599Z,2.00
2023-12-29T23:16:38.120Z,2.08
2023-12-29T23:19:06.360Z,2.53
2023-12-29T23:25:59.157Z,2.17
2023-12-29T23:28:27.177Z,1.98
2023-12-29T23:30:56.995Z,2.25
2023-12-29T23:33:25.102Z,2.05
2023-12-29T23:35:53.309Z,2.65
2023-12-29T23:38:21.567Z,2.15
2023-12-29T23:40:49.428Z,2.00
2023-12-29T23:43:17.355Z,1.90
2023-12-29T23:45:45.435Z,2.00
2023-12-29T23:48:15.032Z,2.10
2023-12-29T23:50:42.923Z,2.20
2023-12-29T23:53:10.772Z,2.00
2023-12-29T23:55:38.738Z,2.35
2023-12-29T23:58:06.566Z,1.98
